Terminal Aerodrome Forecast
Issued by NWS

Home | Current Version | Previous Version | Text Only | Print | Product List | Glossary On
Versions: 1 2 3 4 5 6 7 8 9 10 11 12 13 14 15
000
FTUS41 KBTV 040526
TAFSLK
TAF
KSLK 040526Z 0406/0506 00000KT 5SM BR BKN250
     FM040800 00000KT 3SM BR SCT001 BKN250
      TEMPO 0408/0411 1SM BR BKN001
     FM041200 21005KT P6SM SCT050 BKN200
     FM041500 21006KT P6SM VCSH SCT040 BKN100
     FM041800 22005KT P6SM VCSH BKN040
     FM050000 VRB03KT P6SM BKN040=

USA.gov is the U.S. government's official web portal to all federal, state and local government web resources and services.